createdAt,value
2023-01-07T00:00:14.981Z,156.37
2023-01-07T00:02:45.720Z,175.23
2023-01-07T00:05:14.793Z,162.80
2023-01-07T00:07:43.888Z,169.30
2023-01-07T00:10:12.854Z,178.07
2023-01-07T00:12:41.843Z,161.73
2023-01-07T00:15:11.639Z,172.87
2023-01-07T00:17:40.652Z,166.23
2023-01-07T00:20:12.185Z,159.37
2023-01-07T00:22:41.569Z,128.73
2023-01-07T00:25:11.158Z,112.30
2023-01-07T00:27:40.121Z,124.03
2023-01-07T00:30:10.908Z,141.93
2023-01-07T00:32:58.072Z,143.93
2023-01-07T00:35:28.664Z,147.43
2023-01-07T00:37:57.871Z,139.20
2023-01-07T00:40:27.009Z,129.47
2023-01-07T00:42:57.150Z,130.93
2023-01-07T00:45:27.311Z,148.73
2023-01-07T00:48:14.685Z,148.27
2023-01-07T00:50:45.187Z,158.53
2023-01-07T00:53:14.527Z,167.30
2023-01-07T00:55:43.676Z,142.80
2023-01-07T00:58:16.585Z,147.53
2023-01-07T01:00:46.428Z,158.40
2023-01-07T01:03:15.897Z,152.13
2023-01-07T01:05:46.415Z,165.80
2023-01-07T01:08:15.510Z,171.97
2023-01-07T01:10:45.737Z,167.90
2023-01-07T01:13:33.182Z,151.70
2023-01-07T01:16:02.531Z,153.63
2023-01-07T01:18:32.128Z,145.07
2023-01-07T01:21:07.170Z,143.93
2023-01-07T01:23:36.849Z,122.00
2023-01-07T01:26:07.606Z,132.50
2023-01-07T01:28:37.196Z,127.33
2023-01-07T01:31:08.497Z,122.87
2023-01-07T01:33:46.126Z,127.77
2023-01-07T01:36:16.561Z,113.68
2023-01-07T01:38:45.723Z,106.13
2023-01-07T01:41:16.495Z,101.47
2023-01-07T01:43:47.730Z,103.85
2023-01-07T01:46:20.935Z,102.03
2023-01-07T01:48:55.425Z,98.70
2023-01-07T01:51:34.658Z,98.40
2023-01-07T01:54:06.745Z,114.03
2023-01-07T01:56:39.848Z,116.47
2023-01-07T01:59:14.867Z,115.47
2023-01-07T02:01:44.235Z,119.63
2023-01-07T02:04:20.190Z,123.73
2023-01-07T02:06:56.309Z,121.10
2023-01-07T02:09:27.523Z,142.97
2023-01-07T02:12:05.806Z,138.67
2023-01-07T02:15:03.247Z,131.00
2023-01-07T02:17:45.856Z,135.80
2023-01-07T02:20:58.789Z,128.87
2023-01-07T02:24:03.211Z,117.57
2023-01-07T02:27:01.909Z,122.97
2023-01-07T02:29:58.658Z,127.83
2023-01-07T02:32:37.918Z,128.03
2023-01-07T02:35:18.999Z,126.87
2023-01-07T02:37:54.772Z,131.57
2023-01-07T02:40:28.315Z,130.23
2023-01-07T02:43:08.211Z,127.93
2023-01-07T02:45:45.832Z,125.57
2023-01-07T02:48:19.519Z,122.35
2023-01-07T02:50:48.744Z,125.83
2023-01-07T02:53:20.035Z,122.63
2023-01-07T02:56:02.999Z,121.15
2023-01-07T02:58:58.372Z,119.70
2023-01-07T03:01:53.919Z,121.27
2023-01-07T03:04:54.031Z,119.68
2023-01-07T03:07:34.303Z,117.78
2023-01-07T03:10:08.772Z,118.43
2023-01-07T03:12:42.659Z,120.82
2023-01-07T03:15:16.748Z,119.38
2023-01-07T03:17:50.787Z,118.68
2023-01-07T03:20:24.018Z,119.57
2023-01-07T03:22:54.529Z,110.82
2023-01-07T03:25:25.552Z,104.40
2023-01-07T03:27:56.077Z,114.90
2023-01-07T03:30:44.974Z,112.57
2023-01-07T03:33:17.973Z,102.05
2023-01-07T03:35:52.398Z,114.25
2023-01-07T03:38:24.070Z,99.15
2023-01-07T03:40:54.432Z,97.25
2023-01-07T03:43:24.142Z,99.30
2023-01-07T03:45:55.022Z,110.35
2023-01-07T03:48:24.201Z,109.30
2023-01-07T03:50:55.306Z,101.68
2023-01-07T03:53:24.355Z,100.88
2023-01-07T03:55:54.089Z,99.55
2023-01-07T03:58:23.097Z,99.47
2023-01-07T04:00:56.523Z,95.18
2023-01-07T04:03:25.736Z,95.65
2023-01-07T04:05:56.141Z,81.93
2023-01-07T04:08:26.618Z,90.68
2023-01-07T04:10:55.844Z,83.43
2023-01-07T04:13:25.755Z,78.15
2023-01-07T04:15:55.658Z,88.65
2023-01-07T04:18:25.591Z,88.53
2023-01-07T04:20:56.499Z,88.38
2023-01-07T04:23:25.640Z,85.30
2023-01-07T04:25:56.628Z,86.73
2023-01-07T04:28:27.415Z,85.78
2023-01-07T04:30:56.806Z,87.85
2023-01-07T04:33:25.923Z,85.95
2023-01-07T04:35:57.941Z,83.00
2023-01-07T04:38:27.842Z,83.55
2023-01-07T04:40:57.821Z,82.88
2023-01-07T04:43:26.861Z,84.60
2023-01-07T04:45:56.490Z,79.63
2023-01-07T04:48:25.848Z,81.88
2023-01-07T04:50:57.887Z,77.85
2023-01-07T04:53:27.563Z,71.15
2023-01-07T04:56:15.326Z,72.80
2023-01-07T04:58:45.372Z,70.10
2023-01-07T05:01:33.134Z,72.13
2023-01-07T05:04:02.326Z,72.25
2023-01-07T05:06:33.098Z,70.38
2023-01-07T05:09:02.472Z,63.53
2023-01-07T05:11:32.241Z,68.82
2023-01-07T05:14:02.522Z,71.70
2023-01-07T05:16:34.433Z,73.27
2023-01-07T05:19:08.257Z,67.73
2023-01-07T05:21:42.992Z,75.80
2023-01-07T05:24:13.175Z,72.63
2023-01-07T05:26:43.159Z,74.03
2023-01-07T05:29:12.438Z,76.60
2023-01-07T05:31:43.462Z,73.23
2023-01-07T05:34:12.532Z,73.43
2023-01-07T05:36:43.643Z,74.15
2023-01-07T05:39:13.129Z,74.00
2023-01-07T05:41:42.915Z,75.22
2023-01-07T05:44:12.063Z,71.43
2023-01-07T05:46:41.164Z,74.07
2023-01-07T05:49:10.381Z,82.65
2023-01-07T05:51:39.445Z,73.93
2023-01-07T05:54:10.043Z,66.72
2023-01-07T05:56:39.176Z,67.37
2023-01-07T05:59:08.143Z,67.55
2023-01-07T06:01:37.264Z,71.25
2023-01-07T06:04:06.227Z,70.78
2023-01-07T06:06:35.357Z,72.53
2023-01-07T06:09:04.389Z,66.30
2023-01-07T06:11:34.864Z,70.28
2023-01-07T06:14:03.932Z,65.57
2023-01-07T06:16:32.878Z,63.73
2023-01-07T06:19:01.850Z,64.65
2023-01-07T06:21:31.257Z,70.85
2023-01-07T06:24:00.400Z,116.37
2023-01-07T06:26:29.586Z,89.23
2023-01-07T06:29:00.106Z,59.73
2023-01-07T06:31:29.372Z,55.43
2023-01-07T06:33:58.429Z,55.90
2023-01-07T06:36:27.690Z,54.63
2023-01-07T06:38:56.878Z,53.23
2023-01-07T06:41:25.817Z,49.63
2023-01-07T06:43:55.001Z,51.10
2023-01-07T06:46:25.709Z,49.67
2023-01-07T06:48:54.849Z,48.53
2023-01-07T06:51:23.783Z,47.60
2023-01-07T06:53:52.762Z,46.13
2023-01-07T06:56:22.113Z,45.13
2023-01-07T06:58:51.268Z,46.80
2023-01-07T07:01:20.426Z,45.60
2023-01-07T07:03:51.160Z,48.20
2023-01-07T07:06:20.215Z,45.83
2023-01-07T07:08:49.312Z,44.67
2023-01-07T07:11:18.416Z,44.13
2023-01-07T07:13:47.488Z,43.03
2023-01-07T07:16:16.552Z,42.07
2023-01-07T07:18:45.665Z,44.47
2023-01-07T07:21:16.118Z,40.00
2023-01-07T07:23:45.192Z,40.87
2023-01-07T07:26:14.285Z,41.73
2023-01-07T07:28:44.930Z,39.70
2023-01-07T07:31:14.054Z,39.23
2023-01-07T07:33:42.959Z,39.50
2023-01-07T07:36:12.038Z,39.47
2023-01-07T07:38:42.562Z,40.97
2023-01-07T07:41:11.866Z,41.50
2023-01-07T07:43:40.782Z,39.23
2023-01-07T07:46:09.809Z,37.30
2023-01-07T07:48:39.047Z,37.27
2023-01-07T07:51:08.180Z,38.70
2023-01-07T07:53:37.193Z,38.40
2023-01-07T07:56:10.635Z,37.00
2023-01-07T07:58:39.613Z,37.80
2023-01-07T08:01:08.648Z,36.93
2023-01-07T08:03:39.153Z,34.17
2023-01-07T08:06:09.448Z,34.00
2023-01-07T08:08:38.811Z,32.37
2023-01-07T08:11:07.877Z,33.90
2023-01-07T08:13:38.780Z,33.37
2023-01-07T08:16:08.278Z,31.73
2023-01-07T08:18:37.299Z,31.50
2023-01-07T08:21:06.501Z,31.63
2023-01-07T08:23:36.179Z,30.83
2023-01-07T08:26:05.915Z,32.87
2023-01-07T08:28:35.661Z,32.27
2023-01-07T08:31:07.746Z,30.77
2023-01-07T08:33:38.804Z,31.17
2023-01-07T08:36:26.445Z,30.33
2023-01-07T08:38:56.563Z,32.07
2023-01-07T08:41:26.712Z,30.33
2023-01-07T08:43:55.887Z,31.33
2023-01-07T08:46:26.375Z,28.97
2023-01-07T08:48:55.461Z,29.97
2023-01-07T08:51:24.508Z,29.63
2023-01-07T08:53:53.501Z,30.73
2023-01-07T08:56:22.890Z,29.77
2023-01-07T08:58:51.889Z,29.63
2023-01-07T09:01:20.899Z,29.53
2023-01-07T09:03:51.939Z,28.17
2023-01-07T09:06:21.094Z,28.10
2023-01-07T09:08:50.235Z,29.17
2023-01-07T09:11:19.388Z,28.47
2023-01-07T09:13:48.429Z,29.63
2023-01-07T09:16:17.713Z,28.87
2023-01-07T09:18:46.975Z,29.17
2023-01-07T09:21:17.752Z,29.67
2023-01-07T09:23:46.880Z,28.33
2023-01-07T09:26:15.915Z,28.00
2023-01-07T09:28:44.965Z,29.83
2023-01-07T09:31:13.822Z,29.07
2023-01-07T09:33:42.786Z,28.93
2023-01-07T09:36:11.989Z,26.57
2023-01-07T09:38:42.615Z,26.73
2023-01-07T09:41:30.073Z,27.70
2023-01-07T09:44:09.534Z,28.23
2023-01-07T09:46:39.227Z,29.30
2023-01-07T09:49:19.897Z,28.10
2023-01-07T09:51:55.610Z,30.53
2023-01-07T09:54:32.115Z,27.77
2023-01-07T09:57:01.392Z,28.73
2023-01-07T09:59:30.755Z,27.57
2023-01-07T10:02:06.829Z,28.13
2023-01-07T10:04:44.509Z,28.37
2023-01-07T10:07:25.761Z,30.60
2023-01-07T10:10:08.246Z,29.47
2023-01-07T10:12:44.791Z,31.57
2023-01-07T10:15:23.946Z,32.40
2023-01-07T10:18:07.922Z,30.33
2023-01-07T10:20:46.743Z,31.17
2023-01-07T10:23:21.903Z,31.13
2023-01-07T10:25:55.080Z,29.97
2023-01-07T10:28:28.609Z,30.47
2023-01-07T10:30:57.968Z,29.90
2023-01-07T10:33:30.040Z,27.20
2023-01-07T10:36:08.521Z,28.47
2023-01-07T10:38:42.098Z,31.90
2023-01-07T10:41:19.424Z,28.73
2023-01-07T10:44:02.944Z,27.50
2023-01-07T10:46:50.020Z,27.93
2023-01-07T10:49:32.680Z,28.13
2023-01-07T10:52:12.874Z,29.27
2023-01-07T10:55:03.451Z,32.33
2023-01-07T10:57:35.468Z,29.70
2023-01-07T11:00:09.927Z,33.03
2023-01-07T11:02:40.384Z,32.77
2023-01-07T11:05:14.891Z,34.17
2023-01-07T11:07:48.142Z,35.03
2023-01-07T11:10:20.511Z,33.90
2023-01-07T11:12:54.855Z,35.40
2023-01-07T11:15:28.829Z,37.77
2023-01-07T11:18:00.734Z,37.33
2023-01-07T11:20:47.784Z,37.07
2023-01-07T11:23:25.025Z,38.80
2023-01-07T11:25:54.597Z,37.00
2023-01-07T11:28:29.987Z,37.40
2023-01-07T11:31:01.462Z,37.63
2023-01-07T11:34:02.272Z,37.67
2023-01-07T11:36:41.306Z,38.23
2023-01-07T11:39:19.411Z,38.23
2023-01-07T11:41:56.730Z,36.53
2023-01-07T11:44:27.688Z,39.53
2023-01-07T11:46:57.188Z,40.53
2023-01-07T11:49:29.176Z,37.07
2023-01-07T11:51:59.098Z,38.87
2023-01-07T11:54:29.874Z,39.20
2023-01-07T11:57:14.450Z,37.97
2023-01-07T11:59:45.020Z,37.87
2023-01-07T12:02:27.818Z,37.23
2023-01-07T12:05:18.555Z,40.67
2023-01-07T12:07:48.741Z,38.50
2023-01-07T12:10:30.640Z,37.67
2023-01-07T12:13:01.582Z,37.53
2023-01-07T12:15:35.072Z,36.77
2023-01-07T12:18:37.882Z,37.17
2023-01-07T12:21:28.907Z,40.00
2023-01-07T12:24:20.741Z,41.53
2023-01-07T12:26:58.919Z,39.70
2023-01-07T12:29:40.199Z,43.73
2023-01-07T12:32:28.322Z,43.60
2023-01-07T12:35:14.186Z,43.47
2023-01-07T12:37:49.866Z,42.67
2023-01-07T12:40:30.609Z,42.17
2023-01-07T12:43:05.440Z,41.50
2023-01-07T12:45:41.045Z,42.07
2023-01-07T12:48:18.245Z,44.07
2023-01-07T12:50:52.062Z,42.70
2023-01-07T12:53:28.465Z,42.40
2023-01-07T12:56:03.230Z,42.40
2023-01-07T12:58:43.774Z,39.37
2023-01-07T13:01:23.241Z,38.77
2023-01-07T13:04:01.949Z,36.77
2023-01-07T13:06:44.733Z,33.87
2023-01-07T13:09:25.024Z,31.90
2023-01-07T13:12:40.486Z,30.53
2023-01-07T13:15:07.054Z,29.97
2023-01-07T13:17:36.081Z,28.00
2023-01-07T13:20:12.916Z,28.77
2023-01-07T13:22:46.636Z,27.83
2023-01-07T13:25:52.404Z,27.13
2023-01-07T13:28:44.980Z,27.70
2023-01-07T13:31:26.428Z,27.00
2023-01-07T13:34:04.862Z,26.17
2023-01-07T13:36:41.991Z,27.17
2023-01-07T13:39:41.690Z,26.43
2023-01-07T13:42:25.324Z,26.57
2023-01-07T13:45:01.996Z,27.10
2023-01-07T13:47:43.420Z,26.30
2023-01-07T13:50:25.440Z,28.30
2023-01-07T13:53:01.175Z,28.20
2023-01-07T13:55:37.560Z,32.37
2023-01-07T13:58:53.802Z,29.63
2023-01-07T14:01:24.027Z,30.17
2023-01-07T14:03:53.858Z,30.13
2023-01-07T14:06:45.628Z,28.87
2023-01-07T14:09:38.444Z,29.53
2023-01-07T14:12:49.980Z,27.83
2023-01-07T14:15:50.076Z,28.13
2023-01-07T14:18:54.488Z,30.20
2023-01-07T14:21:44.839Z,31.70
2023-01-07T14:24:38.866Z,56.30
2023-01-07T14:27:22.781Z,65.00
2023-01-07T14:29:56.478Z,37.37
2023-01-07T14:32:32.885Z,32.23
2023-01-07T14:35:07.883Z,29.13
2023-01-07T14:37:39.815Z,30.43
2023-01-07T14:41:00.532Z,32.97
2023-01-07T14:44:05.279Z,32.27
2023-01-07T14:46:54.161Z,31.90
2023-01-07T14:50:07.546Z,32.57
2023-01-07T14:53:23.107Z,30.93
2023-01-07T14:56:12.686Z,31.80
2023-01-07T14:59:04.601Z,33.17
2023-01-07T15:02:10.372Z,33.57
2023-01-07T15:05:02.856Z,32.60
2023-01-07T15:07:37.055Z,35.77
2023-01-07T15:10:36.611Z,35.47
2023-01-07T15:13:41.753Z,35.30
2023-01-07T15:16:15.161Z,34.43
2023-01-07T15:18:48.995Z,35.97
2023-01-07T15:21:28.990Z,37.03
2023-01-07T15:24:07.028Z,39.27
2023-01-07T15:26:44.553Z,37.20
2023-01-07T15:29:24.055Z,35.87
2023-01-07T15:32:04.928Z,34.83
2023-01-07T15:34:34.704Z,33.23
2023-01-07T15:37:06.571Z,33.10
2023-01-07T15:39:40.465Z,33.60
2023-01-07T15:42:16.672Z,33.27
2023-01-07T15:44:49.359Z,35.30
2023-01-07T15:47:39.592Z,36.87
2023-01-07T15:50:34.012Z,35.60
2023-01-07T15:53:16.886Z,37.90
2023-01-07T15:55:52.573Z,38.83
2023-01-07T15:58:24.509Z,40.83
2023-01-07T16:00:54.973Z,40.57
2023-01-07T16:03:26.373Z,43.20
2023-01-07T16:05:56.426Z,43.43
2023-01-07T16:08:30.918Z,45.00
2023-01-07T16:11:03.240Z,45.03
2023-01-07T16:13:33.049Z,45.57
2023-01-07T16:16:06.213Z,47.57
2023-01-07T16:18:37.106Z,47.83
2023-01-07T16:21:08.473Z,48.67
2023-01-07T16:23:39.276Z,51.00
2023-01-07T16:26:11.322Z,50.47
2023-01-07T16:28:42.866Z,48.27
2023-01-07T16:31:14.830Z,49.43
2023-01-07T16:34:53.845Z,47.30
2023-01-07T16:37:25.935Z,46.93
2023-01-07T16:40:24.734Z,46.93
2023-01-07T16:42:54.516Z,47.17
2023-01-07T16:45:30.149Z,46.57
2023-01-07T16:48:19.548Z,47.73
2023-01-07T16:50:51.342Z,49.10
2023-01-07T16:53:26.718Z,49.70
2023-01-07T16:56:18.404Z,49.43
2023-01-07T16:58:53.003Z,49.40
2023-01-07T17:01:31.497Z,47.77
2023-01-07T17:04:03.425Z,48.10
2023-01-07T17:06:41.741Z,46.87
2023-01-07T17:09:22.011Z,45.93
2023-01-07T17:11:52.602Z,46.47
2023-01-07T17:14:50.473Z,46.60
2023-01-07T17:17:34.606Z,47.27
2023-01-07T17:20:19.499Z,46.20
2023-01-07T17:22:51.562Z,45.67
2023-01-07T17:25:26.517Z,51.23
2023-01-07T17:27:59.273Z,51.70
2023-01-07T17:30:37.391Z,49.70
2023-01-07T17:33:06.893Z,48.67
2023-01-07T17:35:45.341Z,47.23
2023-01-07T17:38:17.191Z,54.53
2023-01-07T17:40:48.267Z,52.53
2023-01-07T17:43:37.969Z,52.60
2023-01-07T17:46:08.633Z,49.27
2023-01-07T17:48:41.496Z,48.53
2023-01-07T17:51:16.988Z,48.87
2023-01-07T17:53:49.946Z,49.03
2023-01-07T17:56:37.481Z,49.80
2023-01-07T17:59:06.550Z,50.13
2023-01-07T18:01:35.992Z,51.17
2023-01-07T18:04:05.084Z,50.97
2023-01-07T18:06:37.228Z,49.37
2023-01-07T18:09:08.846Z,49.23
2023-01-07T18:11:58.200Z,50.00
2023-01-07T18:14:27.401Z,49.37
2023-01-07T18:16:56.498Z,49.63
2023-01-07T18:19:25.573Z,49.93
2023-01-07T18:21:54.682Z,51.03
2023-01-07T18:24:25.307Z,49.13
2023-01-07T18:26:56.426Z,49.83
2023-01-07T18:29:26.004Z,50.43
2023-01-07T18:31:55.080Z,53.50
2023-01-07T18:34:24.181Z,54.57
2023-01-07T18:36:54.626Z,56.30
2023-01-07T18:39:25.090Z,58.97
2023-01-07T18:41:54.417Z,55.27
2023-01-07T18:44:25.178Z,55.20
2023-01-07T18:46:59.128Z,54.30
2023-01-07T18:49:32.652Z,53.80
2023-01-07T18:52:03.080Z,52.77
2023-01-07T18:54:34.911Z,56.67
2023-01-07T18:57:05.724Z,55.23
2023-01-07T18:59:35.185Z,57.23
2023-01-07T19:02:04.278Z,61.23
2023-01-07T19:04:37.549Z,60.80
2023-01-07T19:07:06.542Z,57.80
2023-01-07T19:09:37.128Z,61.43
2023-01-07T19:12:08.229Z,67.53
2023-01-07T19:14:37.264Z,66.97
2023-01-07T19:17:07.840Z,59.30
2023-01-07T19:19:48.034Z,56.73
2023-01-07T19:22:18.305Z,55.00
2023-01-07T19:24:48.963Z,56.53
2023-01-07T19:27:28.533Z,56.23
2023-01-07T19:30:16.142Z,55.30
2023-01-07T19:32:45.372Z,56.73
2023-01-07T19:35:14.757Z,56.23
2023-01-07T19:37:43.915Z,57.77
2023-01-07T19:40:15.063Z,56.07
2023-01-07T19:42:44.257Z,56.43
2023-01-07T19:45:13.675Z,58.07
2023-01-07T19:47:44.151Z,58.10
2023-01-07T19:50:13.449Z,58.23
2023-01-07T19:52:42.385Z,58.60
2023-01-07T19:55:11.899Z,58.73
2023-01-07T19:57:42.527Z,60.53
2023-01-07T20:00:12.959Z,62.57
2023-01-07T20:02:42.194Z,66.07
2023-01-07T20:05:11.913Z,66.37
2023-01-07T20:07:41.068Z,71.53
2023-01-07T20:10:10.883Z,71.40
2023-01-07T20:12:41.652Z,73.03
2023-01-07T20:15:12.033Z,72.77
2023-01-07T20:17:41.182Z,74.80
2023-01-07T20:20:10.715Z,77.93
2023-01-07T20:22:40.286Z,76.47
2023-01-07T20:25:10.641Z,75.83
2023-01-07T20:27:40.001Z,77.70
2023-01-07T20:30:12.434Z,75.20
2023-01-07T20:33:00.520Z,75.63
2023-01-07T20:35:29.735Z,76.73
2023-01-07T20:37:58.769Z,80.00
2023-01-07T20:40:27.834Z,79.43
2023-01-07T20:42:56.917Z,77.97
2023-01-07T20:45:27.306Z,78.10
2023-01-07T20:47:56.406Z,79.93
2023-01-07T20:50:25.689Z,77.17
2023-01-07T20:52:54.751Z,77.30
2023-01-07T20:55:24.028Z,76.90
2023-01-07T20:57:53.170Z,78.03
2023-01-07T21:00:22.366Z,75.47
2023-01-07T21:02:52.806Z,76.23
2023-01-07T21:05:24.679Z,78.77
2023-01-07T21:07:54.197Z,74.17
2023-01-07T21:10:23.395Z,76.07
2023-01-07T21:12:52.925Z,78.60
2023-01-07T21:15:22.183Z,77.73
2023-01-07T21:17:55.359Z,82.93
2023-01-07T21:20:24.769Z,83.10
2023-01-07T21:22:53.897Z,78.57
2023-01-07T21:25:23.237Z,78.60
2023-01-07T21:27:52.246Z,76.60
2023-01-07T21:30:21.564Z,77.37
2023-01-07T21:32:52.395Z,76.47
2023-01-07T21:35:21.711Z,75.47
2023-01-07T21:37:53.195Z,76.30
2023-01-07T21:40:22.719Z,72.33
2023-01-07T21:42:51.895Z,74.63
2023-01-07T21:45:20.953Z,74.73
2023-01-07T21:47:49.927Z,71.60
2023-01-07T21:50:20.745Z,71.03
2023-01-07T21:52:49.830Z,72.17
2023-01-07T21:55:19.140Z,71.67
2023-01-07T21:57:48.234Z,68.03
2023-01-07T22:00:18.137Z,73.83
2023-01-07T22:02:47.391Z,73.07
2023-01-07T22:05:16.445Z,72.30
2023-01-07T22:07:46.973Z,74.87
2023-01-07T22:10:16.139Z,75.87
2023-01-07T22:12:45.099Z,72.67
2023-01-07T22:15:14.496Z,70.87
2023-01-07T22:17:44.392Z,70.37
2023-01-07T22:20:14.636Z,69.70
2023-01-07T22:22:44.180Z,69.70
2023-01-07T22:25:34.069Z,69.37
2023-01-07T22:28:06.320Z,68.70
2023-01-07T22:30:38.555Z,68.87
2023-01-07T22:33:07.854Z,69.23
2023-01-07T22:35:37.239Z,69.60
2023-01-07T22:38:06.527Z,67.97
2023-01-07T22:40:39.951Z,65.63
2023-01-07T22:43:12.092Z,63.97
2023-01-07T22:45:44.136Z,59.37
2023-01-07T22:48:17.226Z,64.27
2023-01-07T22:50:46.439Z,62.53
2023-01-07T22:53:16.006Z,62.17
2023-01-07T22:55:49.455Z,64.10
2023-01-07T22:58:20.290Z,64.77
2023-01-07T23:01:08.761Z,63.88
2023-01-07T23:03:38.344Z,63.38
2023-01-07T23:06:08.478Z,62.27
2023-01-07T23:08:37.908Z,62.50
2023-01-07T23:11:11.188Z,61.10
2023-01-07T23:13:42.194Z,60.93
2023-01-07T23:16:12.643Z,60.00
2023-01-07T23:18:42.001Z,59.90
2023-01-07T23:21:11.253Z,61.90
2023-01-07T23:23:40.273Z,60.10
2023-01-07T23:26:15.244Z,58.53
2023-01-07T23:28:44.340Z,57.58
2023-01-07T23:31:13.555Z,55.10
2023-01-07T23:33:42.844Z,57.37
2023-01-07T23:36:30.302Z,52.55
2023-01-07T23:38:59.667Z,56.90
2023-01-07T23:41:30.264Z,56.78
2023-01-07T23:43:59.325Z,51.45
2023-01-07T23:46:28.250Z,52.20
2023-01-07T23:48:57.362Z,55.05
2023-01-07T23:51:26.406Z,56.42
2023-01-07T23:53:55.448Z,56.15
2023-01-07T23:56:24.519Z,56.47
2023-01-07T23:58:55.196Z,54.80
